Time;durP1;ratioP1;P1;durP2;ratioP2;P2;SDS_P1;SDS_P2;PMS_P1;PMS_P2;Temp;Humidity;BMP_temperature;BMP_pressure;BME280_temperature;BME280_humidity;BME280_pressure;Samples;Min_cycle;Max_cycle;Signal;HPM_P1;HPM_P2
2021/01/30 00:00:43;;;;;;;6.60;4.55;;;7.20;99.90;;;;;;5101356;28;20202;-77
2021/01/30 00:03:12;;;;;;;5.65;4.25;;;7.20;99.90;;;;;;5091731;28;20259;-76
2021/01/30 00:05:38;;;;;;;8.50;4.95;;;7.20;99.90;;;;;;5108837;28;20189;-77
2021/01/30 00:08:08;;;;;;;6.00;4.25;;;7.20;99.90;;;;;;5093806;28;20656;-76
2021/01/30 00:10:34;;;;;;;8.95;5.15;;;7.10;99.90;;;;;;5109358;28;20732;-77
2021/01/30 00:13:00;;;;;;;9.60;4.85;;;6.90;99.90;;;;;;5093685;28;20194;-78
2021/01/30 00:15:27;;;;;;;10.93;5.20;;;7.00;99.90;;;;;;5098650;28;20242;-73
2021/01/30 00:17:55;;;;;;;10.80;5.28;;;6.90;99.90;;;;;;5111724;28;20258;-74
2021/01/30 00:20:24;;;;;;;6.63;5.00;;;6.90;99.90;;;;;;5112806;28;20706;-74
2021/01/30 00:22:51;;;;;;;6.40;4.90;;;6.90;99.90;;;;;;5111744;28;20228;-74
2021/01/30 00:25:24;;;;;;;10.38;4.82;;;6.90;99.90;;;;;;5111269;28;20589;-74
2021/01/30 00:27:50;;;;;;;6.65;5.65;;;6.80;99.90;;;;;;5091510;28;20203;-74
2021/01/30 00:30:21;;;;;;;8.50;5.63;;;6.90;99.90;;;;;;5107168;28;20567;-74
2021/01/30 00:32:47;;;;;;;6.22;5.00;;;6.90;99.90;;;;;;5104081;28;20219;-74
2021/01/30 00:35:20;;;;;;;7.43;5.25;;;6.90;99.90;;;;;;5092276;28;20178;-74
2021/01/30 00:37:46;;;;;;;12.15;5.55;;;6.90;99.90;;;;;;5101091;28;20174;-74
2021/01/30 00:40:12;;;;;;;10.68;6.65;;;6.70;99.90;;;;;;5104955;28;20259;-75
2021/01/30 00:42:38;;;;;;;10.32;6.20;;;6.80;99.90;;;;;;5091064;28;20195;-75
2021/01/30 00:45:07;;;;;;;7.40;6.55;;;6.80;99.90;;;;;;5086114;28;20187;-75
2021/01/30 00:47:33;;;;;;;7.30;6.60;;;6.80;99.90;;;;;;5095250;28;20515;-74
2021/01/30 00:50:00;;;;;;;9.70;6.47;;;6.70;99.90;;;;;;5111540;28;20670;-74
2021/01/30 00:52:27;;;;;;;16.35;11.02;;;6.70;99.90;;;;;;5107203;28;20166;-74
2021/01/30 00:55:05;;;;;;;18.20;11.50;;;6.60;99.90;;;;;;5076072;28;20535;-74
2021/01/30 00:57:34;;;;;;;17.83;12.38;;;6.50;99.90;;;;;;5091214;28;20187;-74
2021/01/30 01:00:09;;;;;;;20.08;13.38;;;6.30;99.90;;;;;;5091399;28;20233;-75
2021/01/30 01:02:37;;;;;;;20.25;12.77;;;6.20;99.90;;;;;;5090804;28;20215;-74
2021/01/30 01:05:04;;;;;;;22.15;12.80;;;5.80;99.90;;;;;;5097025;28;20205;-75
2021/01/30 01:07:31;;;;;;;19.58;12.30;;;5.60;99.90;;;;;;5074588;28;20182;-75
2021/01/30 01:09:57;;;;;;;26.63;14.85;;;5.50;99.90;;;;;;5096526;28;20214;-74
2021/01/30 01:12:23;;;;;;;25.83;15.70;;;5.40;99.90;;;;;;5074472;28;20167;-74
2021/01/30 01:14:49;;;;;;;30.17;16.75;;;5.30;99.90;;;;;;5091194;28;20879;-75
2021/01/30 01:17:15;;;;;;;30.03;16.03;;;5.20;99.90;;;;;;5092324;28;20191;-74
2021/01/30 01:19:41;;;;;;;23.85;14.65;;;5.10;99.90;;;;;;5100240;28;20452;-74
2021/01/30 01:22:07;;;;;;;27.70;16.63;;;5.10;99.90;;;;;;5111101;28;20319;-74
2021/01/30 01:24:33;;;;;;;29.42;15.18;;;5.00;99.90;;;;;;5111301;28;20407;-74
2021/01/30 01:26:59;;;;;;;22.60;13.80;;;5.00;99.90;;;;;;5108782;28;20179;-74
2021/01/30 01:29:25;;;;;;;26.10;13.93;;;4.90;99.90;;;;;;5073902;28;20524;-74
2021/01/30 01:31:54;;;;;;;25.60;14.20;;;4.90;99.90;;;;;;5074300;28;20328;-74
2021/01/30 01:34:23;;;;;;;24.15;14.45;;;4.90;99.90;;;;;;5091065;28;21070;-74
2021/01/30 01:37:01;;;;;;;29.88;16.23;;;4.70;99.90;;;;;;5091849;28;20195;-74
2021/01/30 01:39:30;;;;;;;21.63;14.85;;;4.70;99.90;;;;;;5094117;28;20260;-74
2021/01/30 01:42:04;;;;;;;25.40;17.38;;;4.70;99.90;;;;;;5094045;28;20282;-74
2021/01/30 01:44:30;;;;;;;25.77;13.35;;;4.60;99.90;;;;;;5110812;28;20232;-75
2021/01/30 01:46:56;;;;;;;22.00;12.47;;;4.50;99.90;;;;;;5111242;28;20621;-74
2021/01/30 01:49:28;;;;;;;20.92;12.15;;;4.50;99.90;;;;;;5113419;28;20823;-74
2021/01/30 01:52:21;;;;;;;24.98;12.20;;;4.40;99.90;;;;;;5114954;28;20170;-74
2021/01/30 01:54:55;;;;;;;23.85;13.02;;;4.40;99.90;;;;;;5115930;28;20169;-74
2021/01/30 01:57:22;;;;;;;21.13;11.48;;;4.40;99.90;;;;;;5108620;28;20199;-74
2021/01/30 01:59:56;;;;;;;20.08;13.25;;;4.30;99.90;;;;;;5077851;28;20364;-74
2021/01/30 02:02:28;;;;;;;17.42;11.90;;;4.30;99.90;;;;;;5095593;28;20565;-74
2021/01/30 02:05:12;;;;;;;18.50;10.80;;;4.30;99.90;;;;;;5094599;28;20708;-74
2021/01/30 02:07:41;;;;;;;19.90;11.60;;;4.40;99.90;;;;;;5077637;28;20179;-75
2021/01/30 02:10:15;;;;;;;17.98;10.82;;;4.40;99.90;;;;;;5094045;28;20209;-75
2021/01/30 02:12:43;;;;;;;17.40;11.40;;;4.30;99.90;;;;;;5084866;28;20171;-74
2021/01/30 02:15:11;;;;;;;17.17;11.57;;;4.40;99.90;;;;;;5095539;28;20181;-74
2021/01/30 02:17:51;;;;;;;17.15;10.85;;;4.40;99.90;;;;;;5093689;28;20213;-74
2021/01/30 02:20:48;;;;;;;18.45;11.52;;;4.30;99.90;;;;;;5095127;28;20207;-74
2021/01/30 02:23:47;;;;;;;20.50;12.00;;;4.30;99.90;;;;;;5077122;28;20202;-74
2021/01/30 02:26:52;;;;;;;19.25;12.05;;;4.10;99.90;;;;;;5095277;28;20187;-74
2021/01/30 02:29:43;;;;;;;16.30;11.63;;;4.00;99.90;;;;;;5095228;28;20237;-74
2021/01/30 02:32:28;;;;;;;14.90;9.88;;;3.80;99.90;;;;;;5094212;28;20195;-73
2021/01/30 02:34:54;;;;;;;15.10;9.18;;;4.00;99.90;;;;;;5094614;28;20213;-74
2021/01/30 02:37:51;;;;;;;19.38;11.60;;;3.80;99.90;;;;;;5060963;28;20660;-74
2021/01/30 02:40:24;;;;;;;21.25;12.48;;;3.70;99.90;;;;;;5092784;28;20206;-74
2021/01/30 02:43:03;;;;;;;14.55;11.63;;;3.60;99.90;;;;;;5094186;28;20835;-74
2021/01/30 02:45:32;;;;;;;17.70;11.32;;;3.40;99.90;;;;;;5112386;28;20175;-74
2021/01/30 02:48:17;;;;;;;14.88;11.32;;;3.40;99.90;;;;;;5113942;28;20158;-74
2021/01/30 02:50:48;;;;;;;18.00;12.05;;;3.30;99.90;;;;;;5094818;28;20199;-74
2021/01/30 02:53:18;;;;;;;22.13;12.60;;;3.30;99.90;;;;;;5093700;28;20187;-74
2021/01/30 02:55:45;;;;;;;19.10;12.40;;;3.30;99.90;;;;;;5076655;28;20170;-73
2021/01/30 02:58:15;;;;;;;19.65;12.88;;;3.40;99.90;;;;;;5094969;28;20195;-74
2021/01/30 03:00:44;;;;;;;19.48;12.98;;;3.30;99.90;;;;;;5076242;28;20203;-74
2021/01/30 03:03:10;;;;;;;31.23;15.23;;;3.30;99.90;;;;;;5093915;28;20227;-74
2021/01/30 03:05:37;;;;;;;22.38;13.30;;;3.40;99.90;;;;;;5092936;28;20168;-74
2021/01/30 03:08:23;;;;;;;21.42;13.50;;;3.50;99.90;;;;;;5096596;28;20183;-74
2021/01/30 03:11:15;;;;;;;23.30;14.75;;;3.40;99.90;;;;;;5093124;28;20164;-74
2021/01/30 03:14:20;;;;;;;23.60;15.07;;;3.40;99.90;;;;;;5059564;28;20199;-74
2021/01/30 03:16:48;;;;;;;24.42;13.82;;;3.50;99.90;;;;;;4999056;28;20271;-74
2021/01/30 03:19:29;;;;;;;19.85;13.50;;;3.40;99.90;;;;;;5031271;28;20201;-74
2021/01/30 03:22:07;;;;;;;21.75;14.20;;;3.50;99.90;;;;;;5031234;28;20205;-74
2021/01/30 03:24:37;;;;;;;21.95;14.15;;;3.80;99.90;;;;;;5014901;28;20256;-74
2021/01/30 03:27:04;;;;;;;17.98;13.13;;;3.60;99.90;;;;;;5017741;28;20667;-74
2021/01/30 03:29:32;;;;;;;26.23;15.35;;;3.60;99.90;;;;;;5015055;28;20204;-75
2021/01/30 03:31:58;;;;;;;34.17;19.43;;;3.70;99.90;;;;;;5014672;28;20564;-74
2021/01/30 03:34:24;;;;;;;33.80;19.77;;;3.40;99.90;;;;;;5023958;28;20469;-74
2021/01/30 03:36:50;;;;;;;27.50;17.83;;;3.70;99.90;;;;;;5034805;28;20648;-73
2021/01/30 03:39:18;;;;;;;25.02;14.27;;;3.40;99.90;;;;;;5034576;28;20442;-74
2021/01/30 03:41:45;;;;;;;29.17;16.25;;;3.30;99.90;;;;;;5051215;28;20309;-74
2021/01/30 03:44:13;;;;;;;25.17;15.80;;;3.00;99.90;;;;;;5051469;28;20788;-74
2021/01/30 03:46:39;;;;;;;27.90;16.23;;;3.00;99.90;;;;;;5040966;28;20202;-74
2021/01/30 03:49:05;;;;;;;25.35;16.67;;;3.00;99.90;;;;;;5093767;28;20741;-74
2021/01/30 03:51:32;;;;;;;24.42;13.95;;;2.90;99.90;;;;;;5092322;28;20159;-74
2021/01/30 03:53:58;;;;;;;25.52;16.50;;;2.80;99.90;;;;;;5093128;28;20175;-74
2021/01/30 03:56:26;;;;;;;28.47;17.37;;;2.80;99.90;;;;;;5091681;28;20190;-74
2021/01/30 03:58:52;;;;;;;28.08;17.48;;;2.90;99.90;;;;;;5092102;28;20448;-74
2021/01/30 04:01:18;;;;;;;27.03;17.03;;;2.80;99.90;;;;;;5092324;28;20533;-74
2021/01/30 04:03:47;;;;;;;32.92;18.70;;;2.60;99.90;;;;;;5073675;28;20807;-74
2021/01/30 04:06:15;;;;;;;29.50;19.67;;;2.70;99.90;;;;;;5091600;28;20220;-73
2021/01/30 04:08:43;;;;;;;30.10;17.75;;;2.60;99.90;;;;;;5075034;28;20199;-74
2021/01/30 04:11:09;;;;;;;31.48;18.05;;;2.40;99.90;;;;;;5092294;28;20247;-74
2021/01/30 04:13:36;;;;;;;31.58;18.73;;;2.40;99.90;;;;;;5081888;28;20195;-74
2021/01/30 04:16:02;;;;;;;28.13;17.50;;;2.50;99.90;;;;;;5092108;28;20186;-74
2021/01/30 04:18:28;;;;;;;32.65;20.20;;;2.40;99.90;;;;;;5091498;28;20179;-74
2021/01/30 04:20:54;;;;;;;32.47;19.07;;;2.60;99.90;;;;;;5075279;28;20176;-74
2021/01/30 04:23:23;;;;;;;29.00;17.10;;;2.30;99.90;;;;;;5075094;28;20506;-74
2021/01/30 04:25:49;;;;;;;27.38;17.45;;;2.60;99.90;;;;;;5091948;28;20455;-74
2021/01/30 04:28:15;;;;;;;29.98;18.40;;;2.40;99.90;;;;;;5105421;28;20212;-74
2021/01/30 04:30:41;;;;;;;27.88;18.45;;;2.40;99.90;;;;;;5095604;28;20663;-74
2021/01/30 04:33:07;;;;;;;27.20;18.05;;;2.40;99.90;;;;;;5048478;22;20230;-72
2021/01/30 04:35:35;;;;;;;28.13;18.33;;;2.30;99.90;;;;;;5023091;28;20217;-72
2021/01/30 04:38:02;;;;;;;28.23;18.25;;;2.30;99.90;;;;;;5010520;28;20190;-72
2021/01/30 04:40:54;;;;;;;28.77;20.50;;;2.40;99.90;;;;;;5012498;28;20673;-72
2021/01/30 04:43:43;;;;;;;28.23;18.27;;;2.20;99.90;;;;;;5013601;28;20703;-72
2021/01/30 04:46:43;;;;;;;26.67;18.70;;;2.10;99.90;;;;;;5013990;28;20196;-72
2021/01/30 04:49:23;;;;;;;25.80;17.75;;;2.20;99.90;;;;;;5025787;28;20208;-72
2021/01/30 04:52:14;;;;;;;26.70;17.50;;;2.40;99.90;;;;;;5013496;28;20256;-72
2021/01/30 04:55:01;;;;;;;24.23;17.15;;;2.60;99.90;;;;;;5013543;28;20220;-72
2021/01/30 04:57:58;;;;;;;24.35;17.20;;;2.30;99.90;;;;;;5028624;28;20716;-73
2021/01/30 05:00:46;;;;;;;26.90;17.80;;;2.50;99.90;;;;;;4986186;28;20216;-72
2021/01/30 05:03:41;;;;;;;24.27;16.65;;;2.40;99.90;;;;;;5028963;28;20715;-72
2021/01/30 05:06:18;;;;;;;29.00;17.17;;;2.60;99.90;;;;;;4995763;28;20189;-72
2021/01/30 05:08:46;;;;;;;28.23;16.63;;;2.40;99.90;;;;;;5011284;28;20204;-72
2021/01/30 05:11:16;;;;;;;27.92;17.17;;;2.40;99.90;;;;;;4997001;28;20177;-72
2021/01/30 05:14:10;;;;;;;26.60;17.05;;;2.60;99.90;;;;;;5013264;28;20287;-72
2021/01/30 05:17:01;;;;;;;27.25;18.15;;;2.40;99.90;;;;;;4980849;28;20205;-72
2021/01/30 05:19:33;;;;;;;29.88;18.08;;;2.50;99.90;;;;;;5021144;28;20201;-72
2021/01/30 05:22:03;;;;;;;27.42;18.08;;;2.00;99.90;;;;;;4996881;28;20201;-72
2021/01/30 05:24:29;;;;;;;27.15;17.48;;;2.30;99.90;;;;;;4999827;28;20173;-72
2021/01/30 05:27:01;;;;;;;23.95;18.48;;;2.30;99.90;;;;;;5016117;28;20564;-72
2021/01/30 05:29:39;;;;;;;27.15;17.60;;;2.20;99.90;;;;;;5034640;28;20251;-72
2021/01/30 05:32:30;;;;;;;26.80;17.25;;;2.30;99.90;;;;;;5034445;28;20232;-72
2021/01/30 05:35:26;;;;;;;27.40;17.63;;;2.40;99.90;;;;;;5033379;28;20227;-72
2021/01/30 05:38:05;;;;;;;26.25;17.75;;;2.30;99.90;;;;;;4994249;28;20193;-72
2021/01/30 05:40:47;;;;;;;25.90;17.10;;;2.20;99.90;;;;;;5016857;28;20251;-72
2021/01/30 05:43:27;;;;;;;24.50;17.40;;;2.20;99.90;;;;;;5017034;28;20652;-72
2021/01/30 05:45:57;;;;;;;25.33;17.40;;;2.30;99.90;;;;;;5034579;28;20176;-72
2021/01/30 05:48:29;;;;;;;30.27;17.48;;;2.20;99.90;;;;;;5000533;28;20192;-72
2021/01/30 05:51:19;;;;;;;25.27;16.67;;;2.50;99.90;;;;;;5017076;28;20227;-72
2021/01/30 05:53:45;;;;;;;24.55;16.75;;;2.40;99.90;;;;;;5017041;28;20256;-72
2021/01/30 05:56:12;;;;;;;23.98;16.95;;;2.50;99.90;;;;;;5016459;28;20623;-72
2021/01/30 05:58:44;;;;;;;30.30;18.75;;;2.50;99.90;;;;;;5016552;28;20287;-72
2021/01/30 06:01:16;;;;;;;25.73;17.17;;;2.50;99.90;;;;;;5034327;28;20185;-72
2021/01/30 06:04:06;;;;;;;23.90;16.88;;;2.50;99.90;;;;;;5013683;28;20186;-72
2021/01/30 06:06:37;;;;;;;26.70;16.58;;;2.30;99.90;;;;;;4996009;28;20209;-72
2021/01/30 06:09:04;;;;;;;22.42;16.95;;;2.30;99.90;;;;;;4996846;28;20713;-72
2021/01/30 06:11:42;;;;;;;27.27;17.83;;;2.30;99.90;;;;;;5015169;28;20658;-72
2021/01/30 06:14:10;;;;;;;24.58;16.60;;;2.40;99.90;;;;;;5016639;28;20209;-72
2021/01/30 06:16:49;;;;;;;25.42;17.98;;;2.50;99.90;;;;;;5016552;28;20177;-72
2021/01/30 06:19:21;;;;;;;21.90;15.40;;;2.50;99.90;;;;;;4999625;28;20193;-72
2021/01/30 06:22:06;;;;;;;24.70;16.95;;;2.30;99.90;;;;;;4999900;28;20205;-72
2021/01/30 06:24:33;;;;;;;20.88;14.80;;;2.50;99.90;;;;;;5016393;28;20169;-72
2021/01/30 06:27:07;;;;;;;20.92;15.13;;;2.20;99.90;;;;;;5033825;28;20172;-72
2021/01/30 06:29:42;;;;;;;20.90;14.35;;;2.30;99.90;;;;;;5033948;28;20657;-72
2021/01/30 06:32:46;;;;;;;20.92;14.85;;;2.20;99.90;;;;;;5012275;28;20245;-72
2021/01/30 06:35:19;;;;;;;20.35;14.55;;;2.30;99.90;;;;;;5007522;28;20212;-72
2021/01/30 06:37:53;;;;;;;19.27;13.90;;;2.40;99.90;;;;;;5010008;28;20190;-72
2021/01/30 06:40:58;;;;;;;21.98;15.65;;;2.50;99.90;;;;;;5000765;28;20217;-72
2021/01/30 06:43:34;;;;;;;19.48;13.95;;;2.20;99.90;;;;;;5001926;28;20639;-73
2021/01/30 06:46:10;;;;;;;20.50;14.23;;;2.40;99.90;;;;;;5013603;28;20169;-72
2021/01/30 06:48:50;;;;;;;19.25;13.45;;;2.30;99.90;;;;;;4993587;28;20678;-72
2021/01/30 06:51:25;;;;;;;20.48;14.82;;;2.50;99.90;;;;;;4996420;28;20189;-72
2021/01/30 06:53:52;;;;;;;17.08;13.55;;;2.40;99.90;;;;;;5012901;28;20595;-72
2021/01/30 06:56:23;;;;;;;19.23;13.55;;;2.40;99.90;;;;;;5013427;28;20174;-72
2021/01/30 06:58:51;;;;;;;18.42;13.15;;;2.10;99.90;;;;;;4995893;28;20202;-72
2021/01/30 07:01:36;;;;;;;21.20;14.38;;;2.10;99.90;;;;;;4992742;28;20640;-72
2021/01/30 07:04:08;;;;;;;18.10;12.48;;;2.20;99.90;;;;;;4976749;28;20178;-72
2021/01/30 07:07:04;;;;;;;17.25;12.48;;;2.40;99.90;;;;;;5004856;28;20204;-72
2021/01/30 07:09:41;;;;;;;16.42;12.43;;;2.30;99.90;;;;;;4962614;28;20210;-72
2021/01/30 07:12:20;;;;;;;16.42;12.45;;;2.30;99.90;;;;;;5008551;28;20170;-72
2021/01/30 07:15:10;;;;;;;16.60;13.55;;;2.30;99.90;;;;;;4990350;28;20213;-72
2021/01/30 07:17:58;;;;;;;17.70;13.23;;;2.30;99.90;;;;;;4996326;28;20634;-72
2021/01/30 07:20:38;;;;;;;15.23;11.80;;;2.30;99.90;;;;;;5011674;28;20703;-72
2021/01/30 07:23:38;;;;;;;17.75;12.13;;;2.30;99.90;;;;;;4995927;28;20205;-72
2021/01/30 07:26:12;;;;;;;15.68;12.30;;;2.50;99.90;;;;;;4928661;28;20361;-72
2021/01/30 07:28:53;;;;;;;15.63;11.70;;;2.20;99.90;;;;;;5012029;28;20193;-72
2021/01/30 07:31:21;;;;;;;16.35;12.20;;;2.30;99.90;;;;;;5013879;28;20695;-72
2021/01/30 07:34:12;;;;;;;16.97;13.40;;;2.30;99.90;;;;;;5011832;28;20309;-71
2021/01/30 07:36:52;;;;;;;14.50;11.85;;;2.60;99.90;;;;;;5007384;28;20446;-72
2021/01/30 07:39:41;;;;;;;16.88;13.18;;;2.60;99.90;;;;;;4979755;28;20581;-71
2021/01/30 07:42:37;;;;;;;14.50;11.85;;;2.30;99.90;;;;;;5011855;28;20288;-72
2021/01/30 07:45:24;;;;;;;14.13;10.80;;;2.40;99.90;;;;;;4993063;28;20280;-72
2021/01/30 07:48:01;;;;;;;15.95;11.65;;;2.30;99.90;;;;;;5008241;28;20608;-72
2021/01/30 07:50:34;;;;;;;14.77;11.55;;;2.30;99.90;;;;;;5008350;28;20231;-72
2021/01/30 07:53:24;;;;;;;12.63;11.15;;;2.20;99.90;;;;;;5006193;28;20297;-72
2021/01/30 07:56:02;;;;;;;12.35;10.40;;;2.30;99.90;;;;;;4991748;28;20201;-72
2021/01/30 07:58:50;;;;;;;13.75;10.95;;;2.30;99.90;;;;;;4991926;28;20198;-72
2021/01/30 08:01:22;;;;;;;12.32;10.68;;;2.20;99.90;;;;;;5006578;28;20185;-72
2021/01/30 08:03:58;;;;;;;13.48;10.15;;;2.30;99.90;;;;;;5007974;28;20202;-71
2021/01/30 08:06:41;;;;;;;13.23;9.93;;;2.40;99.90;;;;;;4988258;28;20296;-72
2021/01/30 08:09:48;;;;;;;11.32;9.35;;;2.50;99.90;;;;;;5008136;28;20201;-72
2021/01/30 08:12:47;;;;;;;11.18;9.13;;;2.30;99.90;;;;;;4991143;28;20647;-72
2021/01/30 08:15:34;;;;;;;10.77;9.20;;;2.60;99.90;;;;;;5008812;28;20190;-72
2021/01/30 08:18:20;;;;;;;10.27;8.77;;;2.20;99.90;;;;;;4987486;28;20182;-73
2021/01/30 08:21:15;;;;;;;13.25;9.95;;;2.40;99.90;;;;;;4989362;28;20719;-73
2021/01/30 08:23:41;;;;;;;10.20;8.80;;;2.40;99.90;;;;;;5006078;28;20205;-73
2021/01/30 08:26:23;;;;;;;11.20;9.67;;;2.20;99.90;;;;;;5006089;28;20925;-72
2021/01/30 08:29:11;;;;;;;9.70;8.30;;;2.10;99.90;;;;;;4991335;28;20530;-72
2021/01/30 08:31:50;;;;;;;10.88;9.77;;;2.20;99.90;;;;;;5007807;28;20659;-73
2021/01/30 08:34:17;;;;;;;10.38;9.25;;;2.30;99.90;;;;;;5010520;28;20280;-73
2021/01/30 08:37:08;;;;;;;10.87;9.37;;;2.20;99.90;;;;;;5022094;28;20284;-73
2021/01/30 08:39:36;;;;;;;9.10;7.80;;;2.30;99.90;;;;;;4963972;28;20878;-73
2021/01/30 08:42:15;;;;;;;8.63;7.72;;;2.10;99.90;;;;;;5026135;28;20193;-72
2021/01/30 08:45:13;;;;;;;8.75;7.45;;;2.20;99.90;;;;;;4995161;28;20327;-73
2021/01/30 08:47:54;;;;;;;9.75;7.72;;;2.30;99.90;;;;;;4974539;28;20244;-73
2021/01/30 08:50:44;;;;;;;7.78;7.07;;;2.30;99.90;;;;;;5003074;28;20343;-73
2021/01/30 08:53:22;;;;;;;7.75;7.00;;;2.40;99.90;;;;;;5027885;28;20176;-73
2021/01/30 08:55:57;;;;;;;9.32;7.60;;;2.30;99.90;;;;;;5007294;28;20606;-73
2021/01/30 08:58:35;;;;;;;8.57;7.65;;;2.30;99.90;;;;;;4997643;28;20519;-73
2021/01/30 09:01:30;;;;;;;8.95;6.85;;;2.40;99.90;;;;;;5026735;28;20243;-72
2021/01/30 09:04:02;;;;;;;7.90;7.15;;;2.30;99.90;;;;;;5027437;28;20223;-73
2021/01/30 09:06:40;;;;;;;7.95;7.18;;;2.40;99.90;;;;;;5007077;28;20197;-72
2021/01/30 09:09:19;;;;;;;8.95;7.45;;;2.40;99.90;;;;;;5026784;28;20670;-72
2021/01/30 09:11:46;;;;;;;7.80;6.90;;;2.60;99.90;;;;;;5008460;28;20232;-73
2021/01/30 09:14:18;;;;;;;8.35;7.47;;;2.50;99.90;;;;;;4992756;28;20189;-73
2021/01/30 09:16:57;;;;;;;8.18;7.38;;;2.50;99.90;;;;;;5026852;28;20216;-73
2021/01/30 09:19:32;;;;;;;8.20;7.45;;;2.60;99.90;;;;;;5025225;28;20209;-73
2021/01/30 09:22:12;;;;;;;9.43;7.75;;;2.60;99.90;;;;;;5026519;28;20204;-73
2021/01/30 09:25:09;;;;;;;9.82;7.65;;;2.50;99.90;;;;;;4993385;28;20184;-73
2021/01/30 09:27:48;;;;;;;7.82;7.13;;;2.60;99.90;;;;;;5007465;28;20307;-72
2021/01/30 09:30:30;;;;;;;8.85;7.35;;;2.80;99.90;;;;;;4992083;28;20205;-72
2021/01/30 09:33:01;;;;;;;7.25;6.55;;;2.90;99.90;;;;;;5008651;28;20220;-73
2021/01/30 09:35:36;;;;;;;7.78;7.10;;;2.60;99.90;;;;;;4989446;28;20554;-73
2021/01/30 09:38:25;;;;;;;6.90;6.20;;;2.80;99.90;;;;;;4990889;28;20225;-73
2021/01/30 09:41:08;;;;;;;7.68;6.97;;;2.80;99.90;;;;;;5010232;28;20187;-73
2021/01/30 09:43:34;;;;;;;7.13;6.53;;;2.90;99.90;;;;;;4991766;28;20309;-72
2021/01/30 09:46:03;;;;;;;6.65;6.05;;;2.90;99.90;;;;;;5008668;28;20190;-73
2021/01/30 09:48:29;;;;;;;8.13;7.22;;;2.80;99.90;;;;;;5026669;28;20176;-72
2021/01/30 09:50:59;;;;;;;7.25;6.55;;;3.10;99.90;;;;;;5009871;28;20192;-73
2021/01/30 09:53:38;;;;;;;7.13;6.53;;;3.00;99.90;;;;;;5026004;28;20287;-73
2021/01/30 09:56:14;;;;;;;6.90;6.20;;;3.00;99.90;;;;;;5006660;28;20169;-73
2021/01/30 09:58:45;;;;;;;6.40;5.90;;;2.90;99.90;;;;;;5009887;28;20260;-73
2021/01/30 10:01:33;;;;;;;7.32;6.15;;;3.10;99.90;;;;;;5009082;28;20185;-71
2021/01/30 10:04:12;;;;;;;7.97;6.43;;;2.90;99.90;;;;;;4992071;28;20288;-72
2021/01/30 10:06:38;;;;;;;7.28;6.63;;;2.90;99.90;;;;;;5002461;28;20256;-73
2021/01/30 10:09:23;;;;;;;8.13;7.27;;;3.00;99.90;;;;;;4992441;28;20193;-72
2021/01/30 10:11:57;;;;;;;7.10;6.45;;;2.90;99.90;;;;;;5011771;28;20412;-73
2021/01/30 10:14:26;;;;;;;7.35;6.75;;;2.90;99.90;;;;;;5030222;28;20599;-73
2021/01/30 10:17:26;;;;;;;7.60;6.90;;;2.90;99.90;;;;;;4995755;28;20166;-71
2021/01/30 10:20:05;;;;;;;7.50;6.53;;;2.90;99.90;;;;;;5003095;28;20209;-76
2021/01/30 10:22:38;;;;;;;7.80;7.10;;;3.00;99.90;;;;;;5030768;28;20538;-72
2021/01/30 10:25:27;;;;;;;8.45;7.40;;;3.00;99.90;;;;;;4980096;28;20166;-74
2021/01/30 10:28:13;;;;;;;8.18;7.40;;;3.00;99.90;;;;;;4986494;28;20965;-73
2021/01/30 10:30:39;;;;;;;8.15;7.32;;;3.20;99.90;;;;;;5030893;28;20217;-73
2021/01/30 10:33:10;;;;;;;6.95;6.35;;;3.10;99.90;;;;;;5012289;28;20221;-72
2021/01/30 10:35:48;;;;;;;7.50;6.80;;;3.20;99.90;;;;;;4994631;28;20181;-72
2021/01/30 10:38:21;;;;;;;9.98;6.85;;;3.20;99.90;;;;;;5013216;28;20749;-77
2021/01/30 10:41:02;;;;;;;8.18;7.47;;;3.40;99.90;;;;;;4996512;28;20248;-76
2021/01/30 10:43:40;;;;;;;8.05;7.25;;;3.30;99.90;;;;;;4997228;28;20279;-75
2021/01/30 10:46:22;;;;;;;6.53;6.00;;;3.40;99.90;;;;;;5008666;28;20650;-75
2021/01/30 10:48:48;;;;;;;7.43;6.35;;;3.40;99.90;;;;;;5015790;28;20658;-75
2021/01/30 10:51:23;;;;;;;7.43;6.72;;;3.50;99.90;;;;;;4983526;28;20631;-75
2021/01/30 10:54:07;;;;;;;7.68;6.97;;;3.40;99.90;;;;;;4998714;28;20180;-75
2021/01/30 10:56:36;;;;;;;7.00;6.30;;;3.50;99.90;;;;;;4995195;28;20184;-75
2021/01/30 10:59:21;;;;;;;7.20;6.50;;;3.50;99.90;;;;;;4988685;28;20686;-75
2021/01/30 11:01:47;;;;;;;8.00;7.30;;;3.50;99.90;;;;;;5020330;28;20259;-75
2021/01/30 11:04:26;;;;;;;8.93;6.20;;;3.50;99.90;;;;;;4981039;28;20210;-74
2021/01/30 11:06:59;;;;;;;6.80;6.20;;;3.70;99.90;;;;;;5012643;28;20192;-78
2021/01/30 11:09:30;;;;;;;7.68;7.07;;;3.90;99.90;;;;;;5015600;28;20227;-73
2021/01/30 11:12:23;;;;;;;6.60;6.00;;;3.90;99.90;;;;;;4997071;28;20189;-74
2021/01/30 11:14:49;;;;;;;6.75;6.18;;;4.10;99.90;;;;;;5011729;28;20188;-73
2021/01/30 11:17:25;;;;;;;7.75;7.15;;;4.10;99.90;;;;;;5000315;28;20635;-73
2021/01/30 11:19:51;;;;;;;6.85;6.10;;;4.00;99.90;;;;;;5032863;28;20201;-73
2021/01/30 11:22:22;;;;;;;7.32;6.72;;;4.00;99.90;;;;;;5014152;28;20193;-73
2021/01/30 11:25:07;;;;;;;7.18;6.57;;;4.00;99.90;;;;;;5015348;28;20260;-75
2021/01/30 11:27:33;;;;;;;6.30;5.90;;;3.80;99.90;;;;;;5015753;28;20169;-77
2021/01/30 11:30:23;;;;;;;6.93;6.43;;;3.90;99.90;;;;;;5015799;28;20197;-76
2021/01/30 11:32:52;;;;;;;7.00;6.50;;;3.90;99.90;;;;;;5012012;28;20531;-75
2021/01/30 11:35:43;;;;;;;7.07;6.38;;;3.90;99.90;;;;;;4996205;28;20178;-76
2021/01/30 11:38:20;;;;;;;6.85;6.30;;;3.80;99.90;;;;;;5001797;28;20178;-75
2021/01/30 11:40:50;;;;;;;6.50;6.00;;;3.80;99.90;;;;;;4992786;28;20206;-75
2021/01/30 11:43:21;;;;;;;6.55;6.05;;;3.90;99.90;;;;;;4976070;28;20229;-76
2021/01/30 11:45:48;;;;;;;6.88;6.38;;;3.80;99.90;;;;;;5012942;28;20541;-76
2021/01/30 11:48:14;;;;;;;7.32;6.65;;;3.70;99.90;;;;;;4993150;28;20226;-76
2021/01/30 11:50:46;;;;;;;6.20;5.70;;;3.80;99.90;;;;;;5003572;28;20198;-76
2021/01/30 11:53:18;;;;;;;6.38;5.88;;;3.70;99.90;;;;;;5011954;28;20189;-76
2021/01/30 11:55:47;;;;;;;6.18;5.70;;;3.90;99.90;;;;;;5012160;28;20240;-75
2021/01/30 11:58:16;;;;;;;7.03;6.30;;;4.00;99.90;;;;;;4995677;28;20237;-75
2021/01/30 12:00:42;;;;;;;5.93;5.53;;;4.00;99.90;;;;;;5012778;28;20209;-74
2021/01/30 12:03:29;;;;;;;6.05;5.55;;;4.00;99.90;;;;;;5010033;28;20210;-77
2021/01/30 12:05:58;;;;;;;5.25;4.85;;;4.00;99.90;;;;;;4995837;28;20170;-79
2021/01/30 12:08:26;;;;;;;6.18;5.68;;;3.90;99.90;;;;;;5013007;28;20170;-73
2021/01/30 12:10:53;;;;;;;6.22;5.72;;;4.20;99.90;;;;;;4992259;28;20179;-73
2021/01/30 12:13:23;;;;;;;6.57;6.07;;;3.90;99.90;;;;;;5004471;28;20193;-71
2021/01/30 12:15:51;;;;;;;5.68;5.18;;;4.00;99.90;;;;;;5009853;28;20205;-73
2021/01/30 12:18:18;;;;;;;6.00;5.60;;;4.20;99.90;;;;;;5010304;28;20225;-73
2021/01/30 12:20:46;;;;;;;6.10;5.60;;;4.30;99.90;;;;;;5010394;28;20682;-72
2021/01/30 12:23:13;;;;;;;6.50;6.00;;;4.30;99.90;;;;;;5010838;28;20206;-72
2021/01/30 12:25:41;;;;;;;6.68;6.18;;;4.40;99.90;;;;;;5011626;28;20253;-71
2021/01/30 12:28:15;;;;;;;5.35;4.95;;;4.50;99.90;;;;;;5010549;28;20193;-71
2021/01/30 12:30:46;;;;;;;5.25;4.85;;;4.50;99.90;;;;;;5011603;28;20198;-71
2021/01/30 12:33:12;;;;;;;5.53;5.10;;;4.50;99.90;;;;;;5022879;28;20714;-71
2021/01/30 12:35:39;;;;;;;5.75;5.35;;;4.40;99.90;;;;;;5012421;28;20280;-71
2021/01/30 12:38:08;;;;;;;6.20;5.80;;;4.40;99.90;;;;;;5019690;28;20185;-71
2021/01/30 12:40:47;;;;;;;6.03;5.45;;;4.40;99.90;;;;;;5031749;28;20220;-70
2021/01/30 12:43:16;;;;;;;5.45;5.05;;;4.40;99.90;;;;;;5014204;28;20193;-71
2021/01/30 12:45:43;;;;;;;5.30;4.88;;;4.40;99.90;;;;;;4994940;28;20174;-71
2021/01/30 12:48:10;;;;;;;5.25;4.90;;;4.40;99.90;;;;;;5014237;28;20190;-70
2021/01/30 12:50:39;;;;;;;5.35;5.05;;;4.40;99.90;;;;;;5003858;28;20239;-70
2021/01/30 12:53:08;;;;;;;5.45;5.05;;;4.30;99.90;;;;;;5013743;28;20192;-70
2021/01/30 12:55:35;;;;;;;5.15;4.85;;;4.40;99.90;;;;;;5014367;28;20255;-70
2021/01/30 12:58:17;;;;;;;5.32;4.93;;;4.40;99.90;;;;;;5031001;28;20224;-73
2021/01/30 13:00:44;;;;;;;5.03;4.70;;;4.30;99.90;;;;;;4994278;28;20209;-73
2021/01/30 13:03:10;;;;;;;4.97;4.68;;;4.40;99.90;;;;;;5001569;28;20255;-71
2021/01/30 13:05:36;;;;;;;5.57;5.03;;;4.30;99.90;;;;;;4980691;28;20196;-71
2021/01/30 13:08:03;;;;;;;6.00;5.60;;;4.50;99.90;;;;;;5023257;28;20186;-71
2021/01/30 13:10:30;;;;;;;5.68;5.18;;;4.40;99.90;;;;;;5030718;28;20220;-71
2021/01/30 13:12:56;;;;;;;4.47;4.18;;;4.50;99.90;;;;;;5013645;28;20652;-71
2021/01/30 13:15:22;;;;;;;6.00;5.60;;;4.80;99.90;;;;;;4990140;28;20221;-70
2021/01/30 13:17:49;;;;;;;5.28;4.97;;;4.70;99.90;;;;;;5013465;28;20630;-71
2021/01/30 13:20:17;;;;;;;4.95;4.65;;;5.00;99.90;;;;;;5011815;28;20240;-70
2021/01/30 13:22:45;;;;;;;4.68;4.38;;;4.90;99.90;;;;;;5030491;28;20205;-71
2021/01/30 13:25:16;;;;;;;5.10;4.70;;;4.90;99.90;;;;;;5015287;28;20695;-71